sensor_id;sensor_type;location;lat;lon;timestamp;P1;durP1;ratioP1;P2;durP2;ratioP2
14326;SDS011;7247;53.330;-1.180;2023-01-25T00:00:41;27.87;;;20.23;;
14326;SDS011;7247;53.330;-1.180;2023-01-25T00:03:07;29.37;;;21.43;;
14326;SDS011;7247;53.330;-1.180;2023-01-25T00:05:34;27.33;;;18.77;;
14326;SDS011;7247;53.330;-1.180;2023-01-25T00:08:01;26.77;;;19.80;;
14326;SDS011;7247;53.330;-1.180;2023-01-25T00:10:28;26.43;;;19.57;;
14326;SDS011;7247;53.330;-1.180;2023-01-25T00:12:54;28.27;;;19.93;;
14326;SDS011;7247;53.330;-1.180;2023-01-25T00:15:21;27.33;;;19.80;;
14326;SDS011;7247;53.330;-1.180;2023-01-25T00:17:47;25.73;;;19.60;;
14326;SDS011;7247;53.330;-1.180;2023-01-25T00:20:14;26.20;;;19.70;;
14326;SDS011;7247;53.330;-1.180;2023-01-25T00:22:40;28.20;;;21.00;;
14326;SDS011;7247;53.330;-1.180;2023-01-25T00:25:08;29.10;;;19.93;;
14326;SDS011;7247;53.330;-1.180;2023-01-25T00:27:35;28.70;;;20.37;;
14326;SDS011;7247;53.330;-1.180;2023-01-25T00:30:01;28.43;;;20.17;;
14326;SDS011;7247;53.330;-1.180;2023-01-25T00:32:32;27.67;;;20.33;;
14326;SDS011;7247;53.330;-1.180;2023-01-25T00:35:01;29.50;;;21.00;;
14326;SDS011;7247;53.330;-1.180;2023-01-25T00:37:29;28.47;;;20.60;;
14326;SDS011;7247;53.330;-1.180;2023-01-25T00:39:56;32.87;;;20.73;;
14326;SDS011;7247;53.330;-1.180;2023-01-25T00:42:23;26.47;;;20.43;;
14326;SDS011;7247;53.330;-1.180;2023-01-25T00:44:50;28.93;;;20.10;;
14326;SDS011;7247;53.330;-1.180;2023-01-25T00:47:16;28.83;;;20.43;;
14326;SDS011;7247;53.330;-1.180;2023-01-25T00:49:43;30.00;;;20.97;;
14326;SDS011;7247;53.330;-1.180;2023-01-25T00:52:10;29.23;;;20.97;;
14326;SDS011;7247;53.330;-1.180;2023-01-25T00:54:37;30.37;;;20.87;;
14326;SDS011;7247;53.330;-1.180;2023-01-25T00:57:03;31.70;;;21.30;;
14326;SDS011;7247;53.330;-1.180;2023-01-25T00:59:32;27.47;;;20.43;;
14326;SDS011;7247;53.330;-1.180;2023-01-25T01:01:59;30.73;;;21.53;;
14326;SDS011;7247;53.330;-1.180;2023-01-25T01:04:25;32.97;;;22.03;;
14326;SDS011;7247;53.330;-1.180;2023-01-25T01:06:52;30.53;;;21.50;;
14326;SDS011;7247;53.330;-1.180;2023-01-25T01:09:19;29.97;;;21.20;;
14326;SDS011;7247;53.330;-1.180;2023-01-25T01:11:45;30.87;;;21.47;;
14326;SDS011;7247;53.330;-1.180;2023-01-25T01:14:12;31.17;;;22.17;;
14326;SDS011;7247;53.330;-1.180;2023-01-25T01:16:40;34.60;;;23.00;;
14326;SDS011;7247;53.330;-1.180;2023-01-25T01:19:06;33.83;;;23.13;;
14326;SDS011;7247;53.330;-1.180;2023-01-25T01:21:33;32.77;;;22.87;;
14326;SDS011;7247;53.330;-1.180;2023-01-25T01:23:59;34.70;;;23.00;;
14326;SDS011;7247;53.330;-1.180;2023-01-25T01:26:26;36.90;;;24.30;;
14326;SDS011;7247;53.330;-1.180;2023-01-25T01:28:52;35.57;;;22.33;;
14326;SDS011;7247;53.330;-1.180;2023-01-25T01:31:19;36.53;;;24.23;;
14326;SDS011;7247;53.330;-1.180;2023-01-25T01:33:49;37.73;;;23.83;;
14326;SDS011;7247;53.330;-1.180;2023-01-25T01:36:16;38.07;;;24.50;;
14326;SDS011;7247;53.330;-1.180;2023-01-25T01:38:43;38.03;;;25.13;;
14326;SDS011;7247;53.330;-1.180;2023-01-25T01:41:10;43.10;;;25.33;;
14326;SDS011;7247;53.330;-1.180;2023-01-25T01:43:37;41.87;;;25.07;;
14326;SDS011;7247;53.330;-1.180;2023-01-25T01:46:04;45.03;;;26.17;;
14326;SDS011;7247;53.330;-1.180;2023-01-25T01:48:35;44.87;;;26.23;;
14326;SDS011;7247;53.330;-1.180;2023-01-25T01:51:09;46.00;;;26.93;;
14326;SDS011;7247;53.330;-1.180;2023-01-25T01:53:37;41.70;;;25.90;;
14326;SDS011;7247;53.330;-1.180;2023-01-25T01:56:06;46.97;;;26.73;;
14326;SDS011;7247;53.330;-1.180;2023-01-25T01:58:35;50.50;;;28.10;;
14326;SDS011;7247;53.330;-1.180;2023-01-25T02:01:02;51.03;;;27.87;;
14326;SDS011;7247;53.330;-1.180;2023-01-25T02:03:28;57.23;;;29.47;;
14326;SDS011;7247;53.330;-1.180;2023-01-25T02:05:56;57.43;;;28.53;;
14326;SDS011;7247;53.330;-1.180;2023-01-25T02:08:27;57.30;;;29.53;;
14326;SDS011;7247;53.330;-1.180;2023-01-25T02:10:55;62.20;;;30.23;;
14326;SDS011;7247;53.330;-1.180;2023-01-25T02:13:21;54.57;;;29.03;;
14326;SDS011;7247;53.330;-1.180;2023-01-25T02:15:49;65.33;;;29.30;;
14326;SDS011;7247;53.330;-1.180;2023-01-25T02:18:16;62.57;;;30.40;;
14326;SDS011;7247;53.330;-1.180;2023-01-25T02:20:43;71.93;;;31.67;;
14326;SDS011;7247;53.330;-1.180;2023-01-25T02:23:12;61.07;;;30.30;;
14326;SDS011;7247;53.330;-1.180;2023-01-25T02:25:43;72.10;;;31.07;;
14326;SDS011;7247;53.330;-1.180;2023-01-25T02:28:10;60.67;;;29.87;;
14326;SDS011;7247;53.330;-1.180;2023-01-25T02:30:39;65.50;;;30.17;;
14326;SDS011;7247;53.330;-1.180;2023-01-25T02:33:06;62.57;;;30.07;;
14326;SDS011;7247;53.330;-1.180;2023-01-25T02:35:37;66.87;;;32.00;;
14326;SDS011;7247;53.330;-1.180;2023-01-25T02:38:03;68.57;;;30.57;;
14326;SDS011;7247;53.330;-1.180;2023-01-25T02:40:30;71.80;;;32.70;;
14326;SDS011;7247;53.330;-1.180;2023-01-25T02:43:00;69.43;;;31.13;;
14326;SDS011;7247;53.330;-1.180;2023-01-25T02:45:27;75.13;;;32.07;;
14326;SDS011;7247;53.330;-1.180;2023-01-25T02:47:54;63.70;;;30.50;;
14326;SDS011;7247;53.330;-1.180;2023-01-25T02:50:21;56.47;;;28.43;;
14326;SDS011;7247;53.330;-1.180;2023-01-25T02:52:47;61.80;;;28.43;;
14326;SDS011;7247;53.330;-1.180;2023-01-25T02:55:14;91.30;;;31.97;;
14326;SDS011;7247;53.330;-1.180;2023-01-25T02:57:40;82.30;;;34.10;;
14326;SDS011;7247;53.330;-1.180;2023-01-25T03:00:08;84.23;;;34.23;;
14326;SDS011;7247;53.330;-1.180;2023-01-25T03:02:35;86.57;;;34.80;;
14326;SDS011;7247;53.330;-1.180;2023-01-25T03:05:02;82.17;;;34.07;;
14326;SDS011;7247;53.330;-1.180;2023-01-25T03:07:28;81.90;;;33.13;;
14326;SDS011;7247;53.330;-1.180;2023-01-25T03:09:54;84.20;;;34.40;;
14326;SDS011;7247;53.330;-1.180;2023-01-25T03:12:21;78.17;;;34.57;;
14326;SDS011;7247;53.330;-1.180;2023-01-25T03:14:47;81.53;;;33.20;;
14326;SDS011;7247;53.330;-1.180;2023-01-25T03:17:15;90.17;;;34.97;;
14326;SDS011;7247;53.330;-1.180;2023-01-25T03:19:41;90.17;;;36.03;;
14326;SDS011;7247;53.330;-1.180;2023-01-25T03:22:08;99.80;;;35.53;;
14326;SDS011;7247;53.330;-1.180;2023-01-25T03:24:35;94.87;;;36.17;;
14326;SDS011;7247;53.330;-1.180;2023-01-25T03:27:01;94.80;;;35.60;;
14326;SDS011;7247;53.330;-1.180;2023-01-25T03:29:38;84.47;;;34.27;;
14326;SDS011;7247;53.330;-1.180;2023-01-25T03:32:05;85.27;;;34.03;;
14326;SDS011;7247;53.330;-1.180;2023-01-25T03:34:32;85.07;;;34.27;;
14326;SDS011;7247;53.330;-1.180;2023-01-25T03:36:59;81.50;;;32.80;;
14326;SDS011;7247;53.330;-1.180;2023-01-25T03:39:25;84.43;;;33.47;;
14326;SDS011;7247;53.330;-1.180;2023-01-25T03:41:52;86.03;;;33.47;;
14326;SDS011;7247;53.330;-1.180;2023-01-25T03:44:18;80.93;;;32.10;;
14326;SDS011;7247;53.330;-1.180;2023-01-25T03:46:44;87.83;;;33.67;;
14326;SDS011;7247;53.330;-1.180;2023-01-25T03:49:11;90.37;;;34.27;;
14326;SDS011;7247;53.330;-1.180;2023-01-25T03:51:39;89.63;;;35.37;;
14326;SDS011;7247;53.330;-1.180;2023-01-25T03:54:05;90.70;;;35.97;;
14326;SDS011;7247;53.330;-1.180;2023-01-25T03:56:32;93.57;;;34.80;;
14326;SDS011;7247;53.330;-1.180;2023-01-25T03:58:58;94.17;;;35.47;;
14326;SDS011;7247;53.330;-1.180;2023-01-25T04:01:25;89.03;;;34.37;;
14326;SDS011;7247;53.330;-1.180;2023-01-25T04:03:51;85.27;;;33.70;;
14326;SDS011;7247;53.330;-1.180;2023-01-25T04:06:18;85.27;;;34.13;;
14326;SDS011;7247;53.330;-1.180;2023-01-25T04:08:45;90.87;;;35.27;;
14326;SDS011;7247;53.330;-1.180;2023-01-25T04:11:12;84.77;;;33.83;;
14326;SDS011;7247;53.330;-1.180;2023-01-25T04:13:38;84.57;;;33.70;;
14326;SDS011;7247;53.330;-1.180;2023-01-25T04:16:05;87.37;;;33.37;;
14326;SDS011;7247;53.330;-1.180;2023-01-25T04:18:32;96.13;;;33.20;;
14326;SDS011;7247;53.330;-1.180;2023-01-25T04:20:59;104.03;;;34.80;;
14326;SDS011;7247;53.330;-1.180;2023-01-25T04:23:25;90.63;;;33.07;;
14326;SDS011;7247;53.330;-1.180;2023-01-25T04:25:53;93.27;;;33.57;;
14326;SDS011;7247;53.330;-1.180;2023-01-25T04:28:20;94.63;;;35.13;;
14326;SDS011;7247;53.330;-1.180;2023-01-25T04:30:46;99.83;;;34.87;;
14326;SDS011;7247;53.330;-1.180;2023-01-25T04:33:12;98.50;;;34.50;;
14326;SDS011;7247;53.330;-1.180;2023-01-25T04:35:39;108.33;;;36.50;;
14326;SDS011;7247;53.330;-1.180;2023-01-25T04:38:06;89.20;;;33.50;;
14326;SDS011;7247;53.330;-1.180;2023-01-25T04:40:32;93.33;;;33.33;;
14326;SDS011;7247;53.330;-1.180;2023-01-25T04:43:00;102.40;;;35.23;;
14326;SDS011;7247;53.330;-1.180;2023-01-25T04:45:26;118.93;;;37.47;;
14326;SDS011;7247;53.330;-1.180;2023-01-25T04:47:56;101.47;;;34.83;;
14326;SDS011;7247;53.330;-1.180;2023-01-25T04:50:23;93.67;;;33.13;;
14326;SDS011;7247;53.330;-1.180;2023-01-25T04:52:50;110.53;;;35.37;;
14326;SDS011;7247;53.330;-1.180;2023-01-25T04:55:16;104.60;;;33.60;;
14326;SDS011;7247;53.330;-1.180;2023-01-25T04:57:44;94.77;;;34.63;;
14326;SDS011;7247;53.330;-1.180;2023-01-25T05:00:12;131.10;;;36.93;;
14326;SDS011;7247;53.330;-1.180;2023-01-25T05:02:38;132.33;;;36.57;;
14326;SDS011;7247;53.330;-1.180;2023-01-25T05:05:05;114.03;;;34.70;;
14326;SDS011;7247;53.330;-1.180;2023-01-25T05:07:31;117.30;;;35.27;;
14326;SDS011;7247;53.330;-1.180;2023-01-25T05:09:58;118.67;;;35.90;;
14326;SDS011;7247;53.330;-1.180;2023-01-25T05:12:24;97.13;;;34.27;;
14326;SDS011;7247;53.330;-1.180;2023-01-25T05:14:51;109.40;;;34.93;;
14326;SDS011;7247;53.330;-1.180;2023-01-25T05:17:18;115.23;;;34.63;;
14326;SDS011;7247;53.330;-1.180;2023-01-25T05:19:45;103.50;;;34.37;;
14326;SDS011;7247;53.330;-1.180;2023-01-25T05:22:12;96.40;;;33.23;;
14326;SDS011;7247;53.330;-1.180;2023-01-25T05:24:38;96.37;;;32.53;;
14326;SDS011;7247;53.330;-1.180;2023-01-25T05:27:06;110.57;;;34.93;;
14326;SDS011;7247;53.330;-1.180;2023-01-25T05:29:32;116.13;;;33.17;;
14326;SDS011;7247;53.330;-1.180;2023-01-25T05:32:01;97.17;;;31.23;;
14326;SDS011;7247;53.330;-1.180;2023-01-25T05:34:28;91.50;;;31.00;;
14326;SDS011;7247;53.330;-1.180;2023-01-25T05:36:55;97.70;;;31.43;;
14326;SDS011;7247;53.330;-1.180;2023-01-25T05:39:22;84.43;;;29.30;;
14326;SDS011;7247;53.330;-1.180;2023-01-25T05:41:48;92.10;;;29.17;;
14326;SDS011;7247;53.330;-1.180;2023-01-25T05:44:15;92.47;;;28.73;;
14326;SDS011;7247;53.330;-1.180;2023-01-25T05:46:41;94.17;;;30.53;;
14326;SDS011;7247;53.330;-1.180;2023-01-25T05:49:07;119.93;;;30.20;;
14326;SDS011;7247;53.330;-1.180;2023-01-25T05:51:35;92.47;;;29.10;;
14326;SDS011;7247;53.330;-1.180;2023-01-25T05:54:02;95.40;;;29.53;;
14326;SDS011;7247;53.330;-1.180;2023-01-25T05:56:29;88.83;;;27.67;;
14326;SDS011;7247;53.330;-1.180;2023-01-25T05:58:55;92.00;;;28.30;;
14326;SDS011;7247;53.330;-1.180;2023-01-25T06:01:22;103.10;;;29.67;;
14326;SDS011;7247;53.330;-1.180;2023-01-25T06:03:49;88.63;;;29.23;;
14326;SDS011;7247;53.330;-1.180;2023-01-25T06:06:16;98.10;;;29.87;;
14326;SDS011;7247;53.330;-1.180;2023-01-25T06:08:44;92.67;;;29.43;;
14326;SDS011;7247;53.330;-1.180;2023-01-25T06:11:11;82.77;;;28.47;;
14326;SDS011;7247;53.330;-1.180;2023-01-25T06:13:37;90.80;;;29.90;;
14326;SDS011;7247;53.330;-1.180;2023-01-25T06:16:04;95.83;;;29.57;;
14326;SDS011;7247;53.330;-1.180;2023-01-25T06:18:31;79.53;;;27.43;;
14326;SDS011;7247;53.330;-1.180;2023-01-25T06:20:58;65.47;;;25.13;;
14326;SDS011;7247;53.330;-1.180;2023-01-25T06:23:25;81.97;;;25.70;;
14326;SDS011;7247;53.330;-1.180;2023-01-25T06:25:56;88.43;;;28.20;;
14326;SDS011;7247;53.330;-1.180;2023-01-25T06:28:22;89.27;;;28.33;;
14326;SDS011;7247;53.330;-1.180;2023-01-25T06:30:49;96.77;;;28.73;;
14326;SDS011;7247;53.330;-1.180;2023-01-25T06:33:15;95.73;;;27.73;;
14326;SDS011;7247;53.330;-1.180;2023-01-25T06:35:42;83.00;;;26.90;;
14326;SDS011;7247;53.330;-1.180;2023-01-25T06:38:08;92.23;;;26.83;;
14326;SDS011;7247;53.330;-1.180;2023-01-25T06:40:35;72.00;;;26.13;;
14326;SDS011;7247;53.330;-1.180;2023-01-25T06:43:06;75.97;;;25.47;;
14326;SDS011;7247;53.330;-1.180;2023-01-25T06:45:32;95.83;;;26.43;;
14326;SDS011;7247;53.330;-1.180;2023-01-25T06:47:59;72.13;;;23.90;;
14326;SDS011;7247;53.330;-1.180;2023-01-25T06:50:25;73.73;;;25.30;;
14326;SDS011;7247;53.330;-1.180;2023-01-25T06:52:52;67.53;;;24.23;;
14326;SDS011;7247;53.330;-1.180;2023-01-25T06:55:19;79.20;;;26.13;;
14326;SDS011;7247;53.330;-1.180;2023-01-25T06:57:45;101.53;;;29.33;;
14326;SDS011;7247;53.330;-1.180;2023-01-25T07:00:14;76.37;;;24.70;;
14326;SDS011;7247;53.330;-1.180;2023-01-25T07:02:41;84.27;;;27.20;;
14326;SDS011;7247;53.330;-1.180;2023-01-25T07:05:07;76.60;;;26.73;;
14326;SDS011;7247;53.330;-1.180;2023-01-25T07:07:34;90.87;;;27.27;;
14326;SDS011;7247;53.330;-1.180;2023-01-25T07:10:01;87.37;;;27.57;;
14326;SDS011;7247;53.330;-1.180;2023-01-25T07:12:27;90.03;;;28.10;;
14326;SDS011;7247;53.330;-1.180;2023-01-25T07:14:54;85.27;;;27.73;;
14326;SDS011;7247;53.330;-1.180;2023-01-25T07:17:22;88.13;;;28.00;;
14326;SDS011;7247;53.330;-1.180;2023-01-25T07:19:48;83.70;;;28.07;;
14326;SDS011;7247;53.330;-1.180;2023-01-25T07:22:15;86.70;;;27.70;;
14326;SDS011;7247;53.330;-1.180;2023-01-25T07:24:42;79.00;;;26.97;;
14326;SDS011;7247;53.330;-1.180;2023-01-25T07:27:13;77.10;;;26.23;;
14326;SDS011;7247;53.330;-1.180;2023-01-25T07:29:40;87.43;;;27.13;;
14326;SDS011;7247;53.330;-1.180;2023-01-25T07:32:06;80.70;;;27.17;;
14326;SDS011;7247;53.330;-1.180;2023-01-25T07:34:34;80.67;;;26.30;;
14326;SDS011;7247;53.330;-1.180;2023-01-25T07:37:01;86.10;;;26.87;;
14326;SDS011;7247;53.330;-1.180;2023-01-25T07:39:27;88.33;;;27.70;;
14326;SDS011;7247;53.330;-1.180;2023-01-25T07:41:54;89.07;;;27.23;;
14326;SDS011;7247;53.330;-1.180;2023-01-25T07:44:20;87.10;;;27.70;;
14326;SDS011;7247;53.330;-1.180;2023-01-25T07:46:47;86.87;;;27.40;;
14326;SDS011;7247;53.330;-1.180;2023-01-25T07:49:13;85.50;;;27.20;;
14326;SDS011;7247;53.330;-1.180;2023-01-25T07:51:41;86.13;;;27.83;;
14326;SDS011;7247;53.330;-1.180;2023-01-25T07:54:08;84.97;;;29.03;;
14326;SDS011;7247;53.330;-1.180;2023-01-25T07:56:35;88.37;;;27.37;;
14326;SDS011;7247;53.330;-1.180;2023-01-25T07:59:04;80.27;;;26.53;;
14326;SDS011;7247;53.330;-1.180;2023-01-25T08:01:32;87.63;;;27.23;;
14326;SDS011;7247;53.330;-1.180;2023-01-25T08:03:59;79.87;;;26.63;;
14326;SDS011;7247;53.330;-1.180;2023-01-25T08:06:27;76.47;;;27.20;;
14326;SDS011;7247;53.330;-1.180;2023-01-25T08:08:56;91.60;;;28.40;;
14326;SDS011;7247;53.330;-1.180;2023-01-25T08:11:24;74.53;;;24.70;;
14326;SDS011;7247;53.330;-1.180;2023-01-25T08:13:51;72.93;;;26.17;;
14326;SDS011;7247;53.330;-1.180;2023-01-25T08:16:17;74.53;;;26.70;;
14326;SDS011;7247;53.330;-1.180;2023-01-25T08:18:45;69.27;;;25.13;;
14326;SDS011;7247;53.330;-1.180;2023-01-25T08:21:12;86.00;;;26.23;;
14326;SDS011;7247;53.330;-1.180;2023-01-25T08:23:38;82.53;;;25.67;;
14326;SDS011;7247;53.330;-1.180;2023-01-25T08:26:07;89.93;;;25.20;;
14326;SDS011;7247;53.330;-1.180;2023-01-25T08:28:33;75.27;;;24.93;;
14326;SDS011;7247;53.330;-1.180;2023-01-25T08:31:04;67.20;;;23.70;;
14326;SDS011;7247;53.330;-1.180;2023-01-25T08:33:30;69.97;;;23.77;;
14326;SDS011;7247;53.330;-1.180;2023-01-25T08:35:57;78.17;;;25.10;;
14326;SDS011;7247;53.330;-1.180;2023-01-25T08:38:23;62.60;;;24.87;;
14326;SDS011;7247;53.330;-1.180;2023-01-25T08:40:50;75.30;;;27.50;;
14326;SDS011;7247;53.330;-1.180;2023-01-25T08:43:17;68.23;;;26.57;;
14326;SDS011;7247;53.330;-1.180;2023-01-25T08:45:44;62.13;;;26.27;;
14326;SDS011;7247;53.330;-1.180;2023-01-25T08:48:10;70.70;;;25.80;;
14326;SDS011;7247;53.330;-1.180;2023-01-25T08:50:44;67.50;;;24.60;;
14326;SDS011;7247;53.330;-1.180;2023-01-25T08:53:10;63.97;;;25.63;;
14326;SDS011;7247;53.330;-1.180;2023-01-25T08:55:36;53.77;;;23.00;;
14326;SDS011;7247;53.330;-1.180;2023-01-25T08:58:04;46.13;;;21.73;;
14326;SDS011;7247;53.330;-1.180;2023-01-25T09:00:36;55.90;;;23.63;;
14326;SDS011;7247;53.330;-1.180;2023-01-25T09:03:03;48.50;;;22.20;;
14326;SDS011;7247;53.330;-1.180;2023-01-25T09:05:29;46.60;;;21.83;;
14326;SDS011;7247;53.330;-1.180;2023-01-25T09:07:56;43.73;;;22.53;;
14326;SDS011;7247;53.330;-1.180;2023-01-25T09:10:23;43.40;;;21.97;;
14326;SDS011;7247;53.330;-1.180;2023-01-25T09:12:50;41.27;;;21.90;;
14326;SDS011;7247;53.330;-1.180;2023-01-25T09:15:16;39.00;;;20.00;;
14326;SDS011;7247;53.330;-1.180;2023-01-25T09:17:44;41.73;;;21.20;;
14326;SDS011;7247;53.330;-1.180;2023-01-25T09:20:10;37.73;;;21.03;;
14326;SDS011;7247;53.330;-1.180;2023-01-25T09:22:37;40.63;;;21.93;;
14326;SDS011;7247;53.330;-1.180;2023-01-25T09:25:04;40.30;;;21.33;;
14326;SDS011;7247;53.330;-1.180;2023-01-25T09:27:31;36.70;;;20.90;;
14326;SDS011;7247;53.330;-1.180;2023-01-25T09:29:57;36.43;;;20.13;;
14326;SDS011;7247;53.330;-1.180;2023-01-25T09:32:24;35.97;;;20.17;;
14326;SDS011;7247;53.330;-1.180;2023-01-25T09:34:52;35.47;;;20.13;;
14326;SDS011;7247;53.330;-1.180;2023-01-25T09:37:18;29.37;;;18.83;;
14326;SDS011;7247;53.330;-1.180;2023-01-25T09:39:44;28.90;;;17.43;;
14326;SDS011;7247;53.330;-1.180;2023-01-25T09:42:21;28.40;;;16.40;;
14326;SDS011;7247;53.330;-1.180;2023-01-25T09:44:58;26.43;;;15.60;;
14326;SDS011;7247;53.330;-1.180;2023-01-25T09:47:29;22.63;;;14.67;;
14326;SDS011;7247;53.330;-1.180;2023-01-25T09:50:06;17.20;;;14.00;;
14326;SDS011;7247;53.330;-1.180;2023-01-25T09:52:45;15.90;;;12.47;;
14326;SDS011;7247;53.330;-1.180;2023-01-25T09:55:19;16.93;;;13.47;;
14326;SDS011;7247;53.330;-1.180;2023-01-25T09:57:46;15.27;;;12.30;;
14326;SDS011;7247;53.330;-1.180;2023-01-25T10:00:16;15.80;;;12.20;;
14326;SDS011;7247;53.330;-1.180;2023-01-25T10:02:46;12.17;;;10.63;;
14326;SDS011;7247;53.330;-1.180;2023-01-25T10:05:18;12.13;;;10.17;;
14326;SDS011;7247;53.330;-1.180;2023-01-25T10:07:55;14.37;;;10.97;;
14326;SDS011;7247;53.330;-1.180;2023-01-25T10:10:23;14.87;;;12.57;;
14326;SDS011;7247;53.330;-1.180;2023-01-25T10:12:51;13.50;;;10.83;;
14326;SDS011;7247;53.330;-1.180;2023-01-25T10:15:19;12.27;;;9.90;;
14326;SDS011;7247;53.330;-1.180;2023-01-25T10:17:47;12.87;;;10.00;;
14326;SDS011;7247;53.330;-1.180;2023-01-25T10:22:49;9.90;;;8.80;;
14326;SDS011;7247;53.330;-1.180;2023-01-25T10:25:23;10.77;;;9.67;;
14326;SDS011;7247;53.330;-1.180;2023-01-25T10:27:57;10.83;;;9.73;;
14326;SDS011;7247;53.330;-1.180;2023-01-25T10:30:27;9.87;;;8.77;;
14326;SDS011;7247;53.330;-1.180;2023-01-25T10:32:55;7.87;;;7.00;;
14326;SDS011;7247;53.330;-1.180;2023-01-25T10:35:24;6.20;;;5.60;;
14326;SDS011;7247;53.330;-1.180;2023-01-25T10:37:53;6.07;;;5.47;;
14326;SDS011;7247;53.330;-1.180;2023-01-25T10:40:22;6.37;;;5.87;;
14326;SDS011;7247;53.330;-1.180;2023-01-25T10:42:50;6.20;;;5.53;;
14326;SDS011;7247;53.330;-1.180;2023-01-25T10:45:17;6.47;;;5.87;;
14326;SDS011;7247;53.330;-1.180;2023-01-25T10:47:45;7.00;;;6.30;;
14326;SDS011;7247;53.330;-1.180;2023-01-25T10:52:57;6.00;;;5.40;;
14326;SDS011;7247;53.330;-1.180;2023-01-25T10:55:23;6.67;;;5.97;;
14326;SDS011;7247;53.330;-1.180;2023-01-25T10:57:54;6.13;;;5.53;;
14326;SDS011;7247;53.330;-1.180;2023-01-25T11:00:23;6.77;;;6.17;;
14326;SDS011;7247;53.330;-1.180;2023-01-25T11:02:51;7.17;;;6.10;;
14326;SDS011;7247;53.330;-1.180;2023-01-25T11:05:25;8.70;;;7.00;;
14326;SDS011;7247;53.330;-1.180;2023-01-25T11:07:52;10.13;;;8.73;;
14326;SDS011;7247;53.330;-1.180;2023-01-25T11:10:30;9.93;;;8.60;;
14326;SDS011;7247;53.330;-1.180;2023-01-25T11:15:54;7.70;;;6.90;;
14326;SDS011;7247;53.330;-1.180;2023-01-25T11:18:22;10.43;;;9.33;;
14326;SDS011;7247;53.330;-1.180;2023-01-25T11:21:02;10.70;;;9.60;;
14326;SDS011;7247;53.330;-1.180;2023-01-25T11:23:29;12.27;;;10.10;;
14326;SDS011;7247;53.330;-1.180;2023-01-25T11:26:09;13.60;;;10.87;;
14326;SDS011;7247;53.330;-1.180;2023-01-25T11:28:36;13.53;;;11.77;;
14326;SDS011;7247;53.330;-1.180;2023-01-25T11:31:02;14.73;;;12.17;;
14326;SDS011;7247;53.330;-1.180;2023-01-25T11:33:29;19.03;;;12.43;;
14326;SDS011;7247;53.330;-1.180;2023-01-25T11:36:06;17.90;;;12.33;;
14326;SDS011;7247;53.330;-1.180;2023-01-25T11:38:34;14.90;;;11.47;;
14326;SDS011;7247;53.330;-1.180;2023-01-25T11:41:03;16.40;;;11.80;;
14326;SDS011;7247;53.330;-1.180;2023-01-25T11:43:40;13.73;;;11.50;;
14326;SDS011;7247;53.330;-1.180;2023-01-25T11:46:16;13.57;;;11.77;;
14326;SDS011;7247;53.330;-1.180;2023-01-25T11:48:57;14.20;;;11.30;;
14326;SDS011;7247;53.330;-1.180;2023-01-25T11:51:26;14.03;;;11.13;;
14326;SDS011;7247;53.330;-1.180;2023-01-25T11:54:01;14.30;;;11.63;;
14326;SDS011;7247;53.330;-1.180;2023-01-25T11:56:33;13.70;;;11.50;;
14326;SDS011;7247;53.330;-1.180;2023-01-25T11:59:11;12.00;;;10.70;;
14326;SDS011;7247;53.330;-1.180;2023-01-25T12:01:42;11.77;;;8.77;;
14326;SDS011;7247;53.330;-1.180;2023-01-25T12:04:26;5.77;;;5.17;;
14326;SDS011;7247;53.330;-1.180;2023-01-25T12:06:58;5.73;;;5.00;;
14326;SDS011;7247;53.330;-1.180;2023-01-25T12:09:36;6.40;;;4.73;;
14326;SDS011;7247;53.330;-1.180;2023-01-25T12:12:13;5.37;;;4.37;;
14326;SDS011;7247;53.330;-1.180;2023-01-25T12:14:46;6.07;;;4.00;;
14326;SDS011;7247;53.330;-1.180;2023-01-25T12:17:22;5.33;;;4.20;;
14326;SDS011;7247;53.330;-1.180;2023-01-25T12:22:39;3.20;;;2.90;;
14326;SDS011;7247;53.330;-1.180;2023-01-25T12:25:13;3.37;;;2.77;;
14326;SDS011;7247;53.330;-1.180;2023-01-25T12:27:48;3.57;;;3.10;;
14326;SDS011;7247;53.330;-1.180;2023-01-25T12:30:22;3.37;;;2.93;;
14326;SDS011;7247;53.330;-1.180;2023-01-25T12:32:52;3.07;;;2.80;;
14326;SDS011;7247;53.330;-1.180;2023-01-25T12:35:22;3.40;;;2.80;;
14326;SDS011;7247;53.330;-1.180;2023-01-25T12:37:52;5.10;;;3.63;;
14326;SDS011;7247;53.330;-1.180;2023-01-25T12:40:20;5.73;;;4.70;;
14326;SDS011;7247;53.330;-1.180;2023-01-25T12:42:49;5.40;;;4.37;;
14326;SDS011;7247;53.330;-1.180;2023-01-25T12:45:18;6.00;;;4.17;;
14326;SDS011;7247;53.330;-1.180;2023-01-25T12:47:48;5.30;;;4.23;;
14326;SDS011;7247;53.330;-1.180;2023-01-25T12:50:17;6.77;;;5.03;;
14326;SDS011;7247;53.330;-1.180;2023-01-25T12:52:45;5.20;;;4.10;;
14326;SDS011;7247;53.330;-1.180;2023-01-25T12:55:13;7.17;;;4.80;;
14326;SDS011;7247;53.330;-1.180;2023-01-25T12:57:40;5.93;;;4.70;;
14326;SDS011;7247;53.330;-1.180;2023-01-25T13:00:14;5.00;;;4.50;;
14326;SDS011;7247;53.330;-1.180;2023-01-25T13:02:49;5.97;;;5.33;;
14326;SDS011;7247;53.330;-1.180;2023-01-25T13:05:24;7.67;;;5.97;;
14326;SDS011;7247;53.330;-1.180;2023-01-25T13:07:55;7.93;;;6.13;;
14326;SDS011;7247;53.330;-1.180;2023-01-25T13:10:24;7.20;;;6.00;;
14326;SDS011;7247;53.330;-1.180;2023-01-25T13:12:52;9.90;;;5.90;;
14326;SDS011;7247;53.330;-1.180;2023-01-25T13:15:37;8.00;;;6.07;;
14326;SDS011;7247;53.330;-1.180;2023-01-25T13:20:59;7.03;;;5.60;;
14326;SDS011;7247;53.330;-1.180;2023-01-25T13:23:29;7.47;;;5.70;;
14326;SDS011;7247;53.330;-1.180;2023-01-25T13:28:40;9.40;;;7.37;;
14326;SDS011;7247;53.330;-1.180;2023-01-25T13:31:06;10.57;;;6.60;;
14326;SDS011;7247;53.330;-1.180;2023-01-25T13:33:34;10.67;;;7.50;;
14326;SDS011;7247;53.330;-1.180;2023-01-25T13:38:55;9.07;;;7.17;;
14326;SDS011;7247;53.330;-1.180;2023-01-25T13:41:21;8.83;;;6.97;;
14326;SDS011;7247;53.330;-1.180;2023-01-25T13:43:49;10.27;;;7.40;;
14326;SDS011;7247;53.330;-1.180;2023-01-25T13:46:18;8.03;;;6.60;;
14326;SDS011;7247;53.330;-1.180;2023-01-25T13:48:59;7.87;;;6.43;;
14326;SDS011;7247;53.330;-1.180;2023-01-25T13:51:26;10.40;;;7.50;;
14326;SDS011;7247;53.330;-1.180;2023-01-25T13:53:56;8.93;;;7.00;;
14326;SDS011;7247;53.330;-1.180;2023-01-25T13:56:24;9.93;;;7.67;;
14326;SDS011;7247;53.330;-1.180;2023-01-25T13:58:51;11.17;;;7.60;;
14326;SDS011;7247;53.330;-1.180;2023-01-25T14:01:18;9.53;;;7.57;;
14326;SDS011;7247;53.330;-1.180;2023-01-25T14:03:48;10.57;;;7.90;;
14326;SDS011;7247;53.330;-1.180;2023-01-25T14:06:15;11.73;;;8.40;;
14326;SDS011;7247;53.330;-1.180;2023-01-25T14:08:42;13.63;;;9.20;;
14326;SDS011;7247;53.330;-1.180;2023-01-25T14:11:10;9.90;;;7.80;;
14326;SDS011;7247;53.330;-1.180;2023-01-25T14:13:53;8.77;;;7.33;;
14326;SDS011;7247;53.330;-1.180;2023-01-25T14:16:20;7.27;;;5.90;;
14326;SDS011;7247;53.330;-1.180;2023-01-25T14:18:46;6.37;;;5.30;;
14326;SDS011;7247;53.330;-1.180;2023-01-25T14:21:14;6.50;;;4.90;;
14326;SDS011;7247;53.330;-1.180;2023-01-25T14:23:41;5.97;;;4.90;;
14326;SDS011;7247;53.330;-1.180;2023-01-25T14:26:16;6.60;;;4.93;;
14326;SDS011;7247;53.330;-1.180;2023-01-25T14:28:42;9.00;;;4.57;;
14326;SDS011;7247;53.330;-1.180;2023-01-25T14:31:12;5.60;;;3.97;;
14326;SDS011;7247;53.330;-1.180;2023-01-25T14:33:41;5.60;;;3.60;;
14326;SDS011;7247;53.330;-1.180;2023-01-25T14:36:12;6.57;;;3.17;;
14326;SDS011;7247;53.330;-1.180;2023-01-25T14:38:39;6.37;;;3.30;;
14326;SDS011;7247;53.330;-1.180;2023-01-25T14:41:10;3.93;;;3.00;;
14326;SDS011;7247;53.330;-1.180;2023-01-25T14:43:39;6.10;;;3.10;;
14326;SDS011;7247;53.330;-1.180;2023-01-25T14:46:19;4.57;;;2.47;;
14326;SDS011;7247;53.330;-1.180;2023-01-25T14:48:45;3.63;;;2.27;;
14326;SDS011;7247;53.330;-1.180;2023-01-25T14:51:13;3.57;;;2.53;;